createdAt,value
2022-10-15T00:00:20.055Z,0.50
2022-10-15T00:01:24.294Z,0.50
2022-10-15T00:02:28.531Z,0.00
2022-10-15T00:03:32.522Z,0.00
2022-10-15T00:04:36.641Z,0.00
2022-10-15T00:05:40.819Z,0.00
2022-10-15T00:06:45.566Z,0.00
2022-10-15T00:07:50.084Z,0.50
2022-10-15T00:08:54.280Z,0.00
2022-10-15T00:09:58.379Z,0.50
2022-10-15T00:11:02.585Z,0.00
2022-10-15T00:12:06.766Z,0.00
2022-10-15T00:13:10.863Z,0.00
2022-10-15T00:14:15.108Z,0.00
2022-10-15T00:15:19.435Z,0.00
2022-10-15T00:16:23.732Z,0.50
2022-10-15T00:17:28.154Z,0.50
2022-10-15T00:18:32.442Z,0.00
2022-10-15T00:19:36.745Z,0.00
2022-10-15T00:20:41.464Z,0.00
2022-10-15T00:21:45.469Z,0.00
2022-10-15T00:22:49.877Z,0.00
2022-10-15T00:23:54.291Z,0.00
2022-10-15T00:24:58.611Z,0.50
2022-10-15T00:26:02.745Z,0.50
2022-10-15T00:27:08.453Z,0.00
2022-10-15T00:28:12.645Z,0.00
2022-10-15T00:29:16.844Z,0.00
2022-10-15T00:30:21.263Z,0.00
2022-10-15T00:31:25.669Z,0.00
2022-10-15T00:32:30.001Z,0.00
2022-10-15T00:33:34.702Z,0.50
2022-10-15T00:34:39.320Z,0.00
2022-10-15T00:35:43.212Z,0.00
2022-10-15T00:36:47.332Z,0.50
2022-10-15T00:37:51.730Z,0.50
2022-10-15T00:38:56.130Z,1.00
2022-10-15T00:40:00.279Z,0.25
2022-10-15T00:41:04.348Z,0.00
2022-10-15T00:42:08.643Z,0.00
2022-10-15T00:43:12.965Z,0.00
2022-10-15T00:44:17.265Z,0.75
2022-10-15T00:45:21.479Z,0.50
2022-10-15T00:46:25.795Z,0.50
2022-10-15T00:47:29.969Z,0.50
2022-10-15T00:48:34.088Z,0.00
2022-10-15T00:49:38.499Z,0.00
2022-10-15T00:50:42.645Z,0.00
2022-10-15T00:51:46.949Z,0.00
2022-10-15T00:52:51.531Z,0.00
2022-10-15T00:53:55.948Z,0.50
2022-10-15T00:55:00.354Z,0.00
2022-10-15T00:56:04.349Z,0.00
2022-10-15T00:57:08.658Z,0.25
2022-10-15T00:59:16.687Z,0.50
2022-10-15T01:00:20.687Z,0.50
2022-10-15T01:01:24.898Z,0.50
2022-10-15T01:02:29.069Z,0.00
2022-10-15T01:03:33.381Z,0.00
2022-10-15T01:04:37.792Z,0.00
2022-10-15T01:05:42.302Z,0.00
2022-10-15T01:06:46.410Z,0.25
2022-10-15T01:07:51.794Z,0.00
2022-10-15T01:08:55.949Z,0.00
2022-10-15T01:10:00.258Z,0.00
2022-10-15T01:11:04.466Z,0.00
2022-10-15T01:12:08.792Z,0.00
2022-10-15T01:13:13.275Z,0.00
2022-10-15T01:14:17.285Z,0.00
2022-10-15T01:15:21.475Z,0.00
2022-10-15T01:16:25.396Z,0.00
2022-10-15T01:17:29.506Z,0.00
2022-10-15T01:18:34.809Z,0.00
2022-10-15T01:19:38.833Z,0.00
2022-10-15T01:20:42.933Z,0.50
2022-10-15T01:21:46.999Z,0.75
2022-10-15T01:22:51.134Z,0.50
2022-10-15T01:23:55.150Z,0.50
2022-10-15T01:24:59.212Z,0.00
2022-10-15T01:26:04.363Z,0.50
2022-10-15T01:27:08.683Z,0.00
2022-10-15T01:35:45.455Z,0.00
2022-10-15T01:36:49.492Z,0.25
2022-10-15T01:37:53.689Z,0.00
2022-10-15T01:38:57.910Z,0.00
2022-10-15T01:40:01.802Z,0.00
2022-10-15T01:41:06.121Z,0.00
2022-10-15T01:42:10.327Z,0.00
2022-10-15T01:43:14.878Z,0.50
2022-10-15T01:44:19.238Z,0.50
2022-10-15T01:45:23.457Z,0.00
2022-10-15T01:46:28.068Z,0.00
2022-10-15T01:47:32.276Z,0.00
2022-10-15T01:48:36.689Z,0.00
2022-10-15T01:49:40.778Z,0.00
2022-10-15T01:50:45.084Z,0.00
2022-10-15T01:51:49.311Z,0.00
2022-10-15T01:52:53.801Z,0.50
2022-10-15T01:53:57.923Z,0.00
2022-10-15T01:55:01.860Z,0.00
2022-10-15T01:56:05.994Z,1.50
2022-10-15T01:57:10.212Z,1.00
2022-10-15T01:58:14.429Z,0.00
2022-10-15T01:59:18.840Z,0.50
2022-10-15T02:00:23.161Z,0.50
2022-10-15T02:01:27.292Z,0.00
2022-10-15T02:02:31.562Z,0.50
2022-10-15T02:03:36.170Z,0.50
2022-10-15T02:04:40.191Z,0.00
2022-10-15T02:05:44.594Z,0.00
2022-10-15T02:06:49.112Z,0.50
2022-10-15T02:07:53.824Z,0.50
2022-10-15T02:08:58.136Z,1.00
2022-10-15T02:10:02.112Z,0.50
2022-10-15T02:11:06.165Z,0.00
2022-10-15T02:12:10.232Z,0.00
2022-10-15T02:13:14.655Z,0.00
2022-10-15T02:14:18.853Z,0.00
2022-10-15T02:15:22.862Z,0.00
2022-10-15T02:16:26.891Z,0.00
2022-10-15T02:17:31.275Z,0.50
2022-10-15T02:18:35.579Z,0.50
2022-10-15T02:19:39.678Z,0.50
2022-10-15T02:20:43.856Z,0.50
2022-10-15T02:21:48.190Z,0.50
2022-10-15T02:22:52.803Z,0.00
2022-10-15T02:23:57.012Z,0.00
2022-10-15T02:25:01.240Z,0.00
2022-10-15T02:26:05.412Z,0.00
2022-10-15T02:27:09.533Z,0.50
2022-10-15T02:28:13.631Z,0.00
2022-10-15T02:29:18.928Z,0.00
2022-10-15T02:30:23.469Z,0.50
2022-10-15T02:32:31.682Z,0.00
2022-10-15T02:33:35.787Z,0.00
2022-10-15T02:34:39.890Z,0.00
2022-10-15T02:35:44.605Z,0.00
2022-10-15T02:36:49.249Z,0.00
2022-10-15T02:37:53.409Z,0.00
2022-10-15T02:38:57.537Z,0.00
2022-10-15T02:40:01.630Z,0.00
2022-10-15T02:41:05.855Z,0.00
2022-10-15T02:42:10.249Z,0.75
2022-10-15T02:43:14.562Z,0.00
2022-10-15T02:44:18.972Z,0.50
2022-10-15T02:45:23.280Z,0.50
2022-10-15T02:46:27.706Z,0.50
2022-10-15T02:47:31.792Z,0.50
2022-10-15T02:48:36.209Z,0.00
2022-10-15T02:49:40.526Z,0.00
2022-10-15T02:50:44.494Z,0.00
2022-10-15T02:51:48.524Z,0.25
2022-10-15T02:52:52.727Z,0.50
2022-10-15T02:53:56.732Z,1.50
2022-10-15T02:55:00.818Z,1.00
2022-10-15T02:56:05.240Z,0.00
2022-10-15T02:57:09.245Z,0.00
2022-10-15T02:58:13.444Z,0.00
2022-10-15T02:59:17.733Z,0.50
2022-10-15T03:00:21.819Z,0.50
2022-10-15T03:01:26.002Z,0.00
2022-10-15T03:02:30.161Z,0.00
2022-10-15T03:03:34.468Z,0.00
2022-10-15T03:04:38.892Z,0.00
2022-10-15T03:05:43.087Z,0.00
2022-10-15T03:06:47.400Z,0.00
2022-10-15T03:07:51.698Z,0.00
2022-10-15T03:08:56.022Z,1.00
2022-10-15T03:10:00.214Z,1.00
2022-10-15T03:11:04.228Z,0.00
2022-10-15T03:12:08.322Z,1.00
2022-10-15T03:13:12.528Z,1.00
2022-10-15T03:14:16.721Z,0.00
2022-10-15T03:15:20.729Z,0.00
2022-10-15T03:16:24.951Z,0.00
2022-10-15T03:17:29.967Z,0.00
2022-10-15T03:18:36.806Z,0.00
2022-10-15T03:19:41.181Z,0.00
2022-10-15T03:20:45.451Z,0.00
2022-10-15T03:21:49.650Z,0.00
2022-10-15T03:22:54.229Z,0.00
2022-10-15T03:23:58.780Z,0.00
2022-10-15T03:25:03.015Z,0.00
2022-10-15T03:26:07.090Z,0.00
2022-10-15T03:27:11.401Z,0.00
2022-10-15T03:28:15.732Z,0.50
2022-10-15T03:29:19.862Z,0.50
2022-10-15T03:30:27.413Z,0.00
2022-10-15T03:31:31.925Z,0.00
2022-10-15T03:32:36.442Z,0.00
2022-10-15T03:33:41.140Z,0.00
2022-10-15T03:34:45.557Z,0.00
2022-10-15T03:35:49.949Z,0.00
2022-10-15T03:36:54.353Z,0.00
2022-10-15T03:37:58.889Z,0.00
2022-10-15T03:39:03.299Z,0.00
2022-10-15T03:40:11.865Z,0.00
2022-10-15T03:41:12.830Z,0.25
2022-10-15T03:42:17.148Z,0.25
2022-10-15T03:43:21.354Z,0.00
2022-10-15T03:44:25.656Z,0.00
2022-10-15T03:45:30.100Z,0.00
2022-10-15T03:46:34.324Z,0.00
2022-10-15T03:47:38.494Z,0.00
2022-10-15T03:48:42.896Z,0.00
2022-10-15T03:49:47.027Z,0.00
2022-10-15T03:50:51.511Z,0.00
2022-10-15T03:51:55.492Z,0.00
2022-10-15T03:52:59.914Z,0.00
2022-10-15T03:54:04.123Z,0.00
2022-10-15T03:55:08.328Z,0.50
2022-10-15T03:56:12.432Z,0.50
2022-10-15T03:57:16.542Z,0.00
2022-10-15T03:58:20.749Z,0.00
2022-10-15T03:59:24.860Z,0.50
2022-10-15T04:00:29.063Z,0.00
2022-10-15T04:01:33.508Z,0.00
2022-10-15T04:02:37.569Z,0.00
2022-10-15T04:03:41.870Z,0.00
2022-10-15T04:04:45.884Z,0.00
2022-10-15T04:05:53.733Z,0.00
2022-10-15T04:06:55.414Z,0.00
2022-10-15T04:07:59.522Z,0.00
2022-10-15T04:09:03.639Z,0.75
2022-10-15T04:10:07.598Z,1.00
2022-10-15T04:11:12.022Z,0.00
2022-10-15T04:12:16.244Z,0.00
2022-10-15T04:13:20.573Z,0.00
2022-10-15T04:14:24.752Z,0.00
2022-10-15T04:15:29.056Z,0.00
2022-10-15T04:16:33.526Z,0.00
2022-10-15T04:17:37.975Z,0.00
2022-10-15T04:18:41.881Z,0.00
2022-10-15T04:19:45.987Z,0.00
2022-10-15T04:20:50.297Z,0.00
2022-10-15T04:21:54.747Z,0.00
2022-10-15T04:22:59.322Z,0.00
2022-10-15T04:24:03.533Z,0.00
2022-10-15T04:25:07.949Z,0.00
2022-10-15T04:26:12.251Z,0.00
2022-10-15T04:27:16.721Z,0.00
2022-10-15T04:28:21.034Z,0.00
2022-10-15T04:29:26.599Z,0.00
2022-10-15T04:30:30.726Z,0.50
2022-10-15T04:31:34.705Z,0.50
2022-10-15T04:32:39.432Z,0.00
2022-10-15T04:33:43.641Z,0.00
2022-10-15T04:34:47.869Z,0.25
2022-10-15T04:35:51.940Z,0.00
2022-10-15T04:36:55.858Z,0.50
2022-10-15T04:38:00.587Z,0.50
2022-10-15T04:39:04.772Z,0.50
2022-10-15T04:40:09.082Z,0.00
2022-10-15T04:41:13.198Z,0.50
2022-10-15T04:42:17.382Z,0.50
2022-10-15T04:43:21.689Z,0.00
2022-10-15T04:44:25.798Z,0.50
2022-10-15T04:45:30.116Z,0.75
2022-10-15T04:46:34.268Z,0.50
2022-10-15T04:47:38.724Z,0.50
2022-10-15T04:48:43.497Z,0.50
2022-10-15T04:49:47.747Z,0.25
2022-10-15T04:50:52.357Z,0.00
2022-10-15T04:51:56.679Z,0.00
2022-10-15T04:53:00.769Z,0.50
2022-10-15T04:54:05.383Z,1.25
2022-10-15T04:55:09.407Z,1.50
2022-10-15T04:56:14.748Z,0.00
2022-10-15T04:57:18.932Z,0.00
2022-10-15T04:58:23.262Z,0.25
2022-10-15T04:59:27.507Z,0.00
2022-10-15T05:00:31.853Z,0.00
2022-10-15T05:01:36.159Z,0.25
2022-10-15T05:02:40.932Z,1.00
2022-10-15T05:03:45.384Z,0.50
2022-10-15T05:04:49.812Z,0.00
2022-10-15T05:05:54.030Z,0.00
2022-10-15T05:06:58.109Z,0.00
2022-10-15T05:08:02.328Z,0.00
2022-10-15T05:09:06.416Z,0.00
2022-10-15T05:10:10.320Z,0.00
2022-10-15T05:11:14.249Z,0.00
2022-10-15T05:13:37.697Z,0.00
2022-10-15T05:14:42.100Z,0.00
2022-10-15T05:15:46.313Z,0.50
2022-10-15T05:16:50.616Z,1.00
2022-10-15T05:19:06.107Z,1.50
2022-10-15T05:20:10.403Z,1.00
2022-10-15T05:21:14.607Z,0.50
2022-10-15T05:22:19.033Z,0.00
2022-10-15T05:23:23.044Z,0.50
2022-10-15T05:24:27.298Z,0.50
2022-10-15T05:25:31.452Z,0.50
2022-10-15T05:26:35.528Z,0.50
2022-10-15T05:27:40.135Z,0.50
2022-10-15T05:28:44.590Z,0.25
2022-10-15T05:29:48.861Z,0.00
2022-10-15T05:30:52.957Z,0.50
2022-10-15T05:31:57.682Z,1.00
2022-10-15T05:33:02.601Z,0.50
2022-10-15T05:34:06.809Z,0.50
2022-10-15T05:35:11.118Z,0.50
2022-10-15T05:36:15.426Z,0.50
2022-10-15T05:37:19.626Z,0.00
2022-10-15T05:38:23.833Z,1.00
2022-10-15T05:39:28.548Z,0.75
2022-10-15T05:40:33.168Z,0.75
2022-10-15T05:41:37.370Z,0.00
2022-10-15T05:42:41.339Z,0.00
2022-10-15T05:43:45.585Z,0.00
2022-10-15T05:44:49.788Z,0.50
2022-10-15T05:45:54.204Z,1.00
2022-10-15T05:46:58.527Z,1.00
2022-10-15T05:48:02.609Z,0.50
2022-10-15T05:49:06.921Z,0.50
2022-10-15T05:50:11.851Z,2.00
2022-10-15T05:51:15.967Z,0.50
2022-10-15T05:52:19.963Z,0.50
2022-10-15T05:53:23.930Z,0.50
2022-10-15T05:54:28.045Z,0.75
2022-10-15T05:55:32.364Z,1.00
2022-10-15T05:56:36.568Z,0.50
2022-10-15T05:57:40.776Z,0.00
2022-10-15T05:58:45.180Z,0.00
2022-10-15T05:59:49.181Z,0.00
2022-10-15T06:00:54.703Z,0.50
2022-10-15T06:01:59.167Z,1.00
2022-10-15T06:03:03.464Z,1.00
2022-10-15T06:04:07.510Z,0.50
2022-10-15T06:05:11.543Z,0.00
2022-10-15T06:06:15.546Z,0.00
2022-10-15T06:07:19.547Z,0.50
2022-10-15T06:08:23.649Z,0.50
2022-10-15T06:09:27.766Z,1.00
2022-10-15T06:10:32.185Z,0.75
2022-10-15T06:11:36.265Z,0.00
2022-10-15T06:12:40.483Z,0.50
2022-10-15T06:13:44.480Z,0.50
2022-10-15T06:14:50.326Z,0.00
2022-10-15T06:15:54.431Z,0.00
2022-10-15T06:16:58.820Z,0.50
2022-10-15T06:18:04.628Z,0.50
2022-10-15T06:19:08.780Z,1.50
2022-10-15T06:20:12.948Z,1.00
2022-10-15T06:21:16.893Z,0.00
2022-10-15T06:22:21.112Z,0.50
2022-10-15T06:23:25.089Z,1.75
2022-10-15T06:25:46.211Z,0.50
2022-10-15T06:26:50.614Z,0.00
2022-10-15T06:29:11.625Z,0.00
2022-10-15T06:30:15.732Z,0.00
2022-10-15T06:31:20.151Z,0.50
2022-10-15T06:32:24.232Z,0.00
2022-10-15T06:33:28.688Z,0.00
2022-10-15T06:34:32.950Z,0.50
2022-10-15T06:35:37.285Z,0.00
2022-10-15T06:36:41.364Z,0.50
2022-10-15T06:37:45.570Z,1.50
2022-10-15T06:38:50.388Z,0.50
2022-10-15T06:39:54.602Z,0.50
2022-10-15T06:40:58.701Z,0.50
2022-10-15T06:42:02.999Z,1.00
2022-10-15T06:43:07.312Z,1.00
2022-10-15T06:44:11.418Z,0.50
2022-10-15T06:45:18.114Z,1.50
2022-10-15T06:46:21.060Z,1.00
2022-10-15T06:47:25.576Z,1.00
2022-10-15T06:48:30.290Z,0.25
2022-10-15T06:49:34.810Z,0.00
2022-10-15T06:50:39.218Z,0.00
2022-10-15T06:51:43.113Z,0.00
2022-10-15T06:52:47.669Z,0.75
2022-10-15T06:53:52.141Z,1.00
2022-10-15T06:54:56.715Z,1.00
2022-10-15T06:56:00.859Z,0.50
2022-10-15T06:57:05.164Z,0.50
2022-10-15T06:58:09.168Z,0.00
2022-10-15T06:59:13.275Z,0.50
2022-10-15T07:00:17.574Z,0.50
2022-10-15T07:01:21.583Z,0.00
2022-10-15T07:02:25.941Z,0.00
2022-10-15T07:03:30.812Z,1.50
2022-10-15T07:04:35.151Z,1.00
2022-10-15T07:05:39.219Z,1.00
2022-10-15T07:06:43.330Z,1.50
2022-10-15T07:07:47.631Z,1.50
2022-10-15T07:08:51.737Z,1.00
2022-10-15T07:09:56.148Z,0.50
2022-10-15T07:11:00.265Z,1.00
2022-10-15T07:12:04.151Z,2.50
2022-10-15T07:13:08.580Z,1.50
2022-10-15T07:14:12.789Z,0.00
2022-10-15T07:15:16.773Z,0.25
2022-10-15T07:16:21.083Z,0.50
2022-10-15T07:17:25.079Z,0.00
2022-10-15T07:18:29.387Z,0.00
2022-10-15T07:19:33.941Z,0.00
2022-10-15T07:20:38.317Z,0.00
2022-10-15T07:21:42.314Z,0.25
2022-10-15T07:22:46.721Z,0.75
2022-10-15T07:23:51.338Z,0.25
2022-10-15T07:24:55.374Z,1.00
2022-10-15T07:25:59.331Z,0.50
2022-10-15T07:27:08.091Z,0.25
2022-10-15T07:28:08.768Z,0.00
2022-10-15T07:29:13.180Z,0.75
2022-10-15T07:30:17.411Z,1.00
2022-10-15T07:31:21.492Z,1.00
2022-10-15T07:32:25.999Z,2.00
2022-10-15T07:33:30.315Z,0.00
2022-10-15T07:34:34.515Z,1.00
2022-10-15T07:35:39.242Z,0.50
2022-10-15T07:36:43.881Z,1.00
2022-10-15T07:37:48.165Z,0.00
2022-10-15T07:38:52.372Z,0.00
2022-10-15T07:39:56.672Z,0.50
2022-10-15T07:41:01.291Z,0.50
2022-10-15T07:42:05.340Z,0.75
2022-10-15T07:43:09.703Z,1.50
2022-10-15T07:44:13.679Z,1.00
2022-10-15T07:45:17.750Z,0.50
2022-10-15T07:46:21.803Z,0.75
2022-10-15T07:47:26.105Z,1.00
2022-10-15T07:48:30.530Z,1.50
2022-10-15T07:49:34.762Z,1.50
2022-10-15T07:50:40.418Z,1.25
2022-10-15T07:51:43.868Z,1.00
2022-10-15T07:52:48.471Z,0.00
2022-10-15T07:53:53.093Z,0.00
2022-10-15T07:54:57.403Z,0.00
2022-10-15T07:56:01.400Z,0.00
2022-10-15T07:57:06.014Z,1.00
2022-10-15T07:58:10.325Z,1.25
2022-10-15T07:59:14.692Z,0.25
2022-10-15T08:00:18.772Z,0.50
2022-10-15T08:01:22.762Z,0.50
2022-10-15T08:02:26.944Z,0.00
2022-10-15T08:03:31.082Z,1.00
2022-10-15T08:04:35.364Z,1.50
2022-10-15T08:05:39.659Z,0.75
2022-10-15T08:06:43.968Z,0.75
2022-10-15T08:07:48.383Z,1.00
2022-10-15T08:08:52.692Z,1.00
2022-10-15T08:09:56.587Z,1.00
2022-10-15T08:11:00.687Z,1.50
2022-10-15T08:12:05.012Z,3.00
2022-10-15T08:13:09.617Z,1.50
2022-10-15T08:14:13.518Z,1.00
2022-10-15T08:15:17.822Z,2.00
2022-10-15T08:16:21.919Z,1.75
2022-10-15T08:17:26.230Z,1.00
2022-10-15T08:18:30.860Z,1.50
2022-10-15T08:19:35.160Z,1.50
2022-10-15T08:20:39.052Z,1.25
2022-10-15T08:21:45.218Z,1.25
2022-10-15T08:22:48.800Z,1.00
2022-10-15T08:23:53.417Z,0.50
2022-10-15T08:24:57.518Z,1.25
2022-10-15T08:26:01.555Z,1.50
2022-10-15T08:27:05.834Z,1.75
2022-10-15T08:29:14.034Z,1.50
2022-10-15T08:30:18.133Z,1.50
2022-10-15T08:31:22.260Z,2.25
2022-10-15T08:32:26.643Z,2.00
2022-10-15T08:33:31.064Z,1.25
2022-10-15T08:34:35.589Z,3.50
2022-10-15T08:35:39.881Z,2.25
2022-10-15T08:36:43.685Z,1.00
2022-10-15T08:37:47.990Z,1.25
2022-10-15T08:38:52.107Z,1.75
2022-10-15T08:39:56.645Z,1.75
2022-10-15T08:41:01.023Z,1.00
2022-10-15T08:42:05.220Z,2.50
2022-10-15T08:43:09.422Z,3.50
2022-10-15T08:44:13.440Z,1.50
2022-10-15T08:45:18.040Z,2.00
2022-10-15T08:46:22.154Z,2.50
2022-10-15T08:47:26.235Z,2.00
2022-10-15T08:48:30.792Z,3.00
2022-10-15T08:49:35.173Z,2.25
2022-10-15T08:50:39.286Z,2.00
2022-10-15T08:51:43.687Z,1.50
2022-10-15T08:52:47.801Z,0.75
2022-10-15T08:53:51.918Z,1.50
2022-10-15T08:54:56.209Z,2.50
2022-10-15T08:56:00.499Z,1.00
2022-10-15T08:57:04.524Z,2.00
2022-10-15T08:58:08.919Z,2.00
2022-10-15T08:59:13.336Z,0.75
2022-10-15T09:00:17.233Z,0.75
2022-10-15T09:01:21.360Z,1.50
2022-10-15T09:02:25.445Z,2.00
2022-10-15T09:03:29.655Z,2.25
2022-10-15T09:04:34.879Z,2.50
2022-10-15T09:05:39.282Z,1.75
2022-10-15T09:06:43.409Z,2.00
2022-10-15T09:07:50.795Z,2.00
2022-10-15T09:08:53.044Z,1.50
2022-10-15T09:09:57.336Z,3.00
2022-10-15T09:11:01.508Z,2.50
2022-10-15T09:12:05.237Z,1.50
2022-10-15T09:13:11.435Z,2.25
2022-10-15T09:14:14.474Z,2.00
2022-10-15T09:15:20.610Z,2.50
2022-10-15T09:16:24.002Z,2.00
2022-10-15T09:17:28.224Z,1.50
2022-10-15T09:18:32.212Z,2.00
2022-10-15T09:19:36.523Z,2.00
2022-10-15T09:20:40.620Z,1.50
2022-10-15T09:21:44.930Z,1.50
2022-10-15T09:23:53.882Z,2.00
2022-10-15T09:24:58.186Z,2.00
2022-10-15T09:26:02.780Z,2.00
2022-10-15T09:27:07.296Z,3.00
2022-10-15T09:28:11.396Z,2.75
2022-10-15T09:29:15.443Z,4.00
2022-10-15T09:30:19.492Z,4.50
2022-10-15T09:31:23.708Z,2.00
2022-10-15T09:32:28.120Z,1.00
2022-10-15T09:34:49.944Z,2.25
2022-10-15T09:35:54.254Z,1.00
2022-10-15T09:36:58.768Z,2.50
2022-10-15T09:38:05.899Z,2.50
2022-10-15T09:39:08.455Z,2.00
2022-10-15T09:40:12.447Z,2.50
2022-10-15T09:41:16.992Z,2.00
2022-10-15T09:42:21.440Z,1.00
2022-10-15T09:43:26.048Z,1.50
2022-10-15T09:44:30.372Z,1.75
2022-10-15T09:45:34.606Z,2.00
2022-10-15T09:46:38.665Z,2.00
2022-10-15T09:47:42.774Z,2.00
2022-10-15T09:48:46.768Z,1.00
2022-10-15T09:49:51.492Z,1.25
2022-10-15T09:50:55.795Z,1.25
2022-10-15T09:51:59.906Z,2.00
2022-10-15T09:53:04.106Z,2.50
2022-10-15T09:54:08.012Z,1.75
2022-10-15T09:55:12.107Z,1.00
2022-10-15T09:56:16.005Z,0.50
2022-10-15T09:57:20.411Z,0.75
2022-10-15T09:58:24.731Z,0.50
2022-10-15T09:59:28.972Z,2.00
2022-10-15T10:00:33.308Z,0.00
2022-10-15T10:01:37.996Z,1.25
2022-10-15T10:02:42.325Z,2.00
2022-10-15T10:03:46.569Z,1.50
2022-10-15T10:04:50.774Z,1.00
2022-10-15T10:05:54.781Z,1.00
2022-10-15T10:06:58.991Z,1.50
2022-10-15T10:08:03.419Z,1.50
2022-10-15T10:09:07.775Z,1.75
2022-10-15T10:10:11.941Z,1.00
2022-10-15T10:11:16.214Z,0.25
2022-10-15T10:12:20.256Z,1.50
2022-10-15T10:13:24.422Z,1.50
2022-10-15T10:14:28.639Z,1.00
2022-10-15T10:15:32.844Z,0.50
2022-10-15T10:16:37.309Z,1.75
2022-10-15T10:17:42.206Z,2.00
2022-10-15T10:18:46.171Z,1.50
2022-10-15T10:19:50.304Z,0.50
2022-10-15T10:20:54.241Z,2.25
2022-10-15T10:21:58.282Z,1.00
2022-10-15T10:23:02.687Z,0.50
2022-10-15T10:24:06.552Z,0.25
2022-10-15T10:25:10.621Z,0.75
2022-10-15T10:26:14.727Z,0.75
2022-10-15T10:27:19.321Z,1.00
2022-10-15T10:28:23.372Z,1.00
2022-10-15T10:29:34.157Z,1.00
2022-10-15T10:30:32.468Z,2.00
2022-10-15T10:31:36.538Z,2.50
2022-10-15T10:32:41.158Z,2.00
2022-10-15T10:33:45.565Z,1.75
2022-10-15T10:34:52.634Z,1.50
2022-10-15T10:35:55.034Z,1.00
2022-10-15T10:36:59.112Z,1.25
2022-10-15T10:38:03.725Z,1.00
2022-10-15T10:39:07.908Z,1.50
2022-10-15T10:40:11.911Z,1.50
2022-10-15T10:41:15.821Z,2.25
2022-10-15T10:42:19.826Z,2.50
2022-10-15T10:43:23.890Z,1.50
2022-10-15T10:44:28.045Z,1.50
2022-10-15T10:45:32.010Z,2.25
2022-10-15T10:46:36.239Z,2.00
2022-10-15T10:47:40.449Z,1.50
2022-10-15T10:48:44.752Z,1.00
2022-10-15T10:49:48.960Z,1.75
2022-10-15T10:50:53.168Z,1.00
2022-10-15T10:51:57.170Z,1.25
2022-10-15T10:53:01.470Z,0.00
2022-10-15T10:54:05.476Z,1.00
2022-10-15T10:55:09.585Z,1.50
2022-10-15T10:56:13.373Z,1.50
2022-10-15T10:57:17.687Z,1.00
2022-10-15T10:58:24.835Z,1.50
2022-10-15T10:59:27.264Z,2.50
2022-10-15T11:00:31.227Z,2.00
2022-10-15T11:01:35.530Z,2.50
2022-10-15T11:02:39.740Z,2.00
2022-10-15T11:03:43.942Z,1.50
2022-10-15T11:04:48.383Z,1.50
2022-10-15T11:05:52.665Z,2.50
2022-10-15T11:06:56.971Z,2.50
2022-10-15T11:08:01.001Z,3.50
2022-10-15T11:09:05.284Z,2.50
2022-10-15T11:10:09.624Z,2.75
2022-10-15T11:11:13.585Z,3.50
2022-10-15T11:12:17.649Z,3.00
2022-10-15T11:13:21.798Z,2.50
2022-10-15T11:14:25.791Z,2.50
2022-10-15T11:15:30.331Z,1.00
2022-10-15T11:16:34.389Z,1.75
2022-10-15T11:17:38.919Z,4.00
2022-10-15T11:18:43.352Z,3.00
2022-10-15T11:20:59.472Z,3.25
2022-10-15T11:21:59.029Z,3.50
2022-10-15T11:23:03.329Z,3.00
2022-10-15T11:24:07.748Z,2.50
2022-10-15T11:25:12.166Z,2.00
2022-10-15T11:26:16.457Z,1.50
2022-10-15T11:27:20.494Z,3.00
2022-10-15T11:28:24.489Z,2.50
2022-10-15T11:29:28.359Z,2.50
2022-10-15T11:30:32.569Z,2.75
2022-10-15T11:31:44.081Z,3.00
2022-10-15T11:33:01.805Z,3.00
2022-10-15T11:33:46.822Z,2.50
2022-10-15T11:34:50.854Z,2.00
2022-10-15T11:35:55.041Z,3.50
2022-10-15T11:36:59.447Z,3.50
2022-10-15T11:38:03.853Z,2.50
2022-10-15T11:39:08.054Z,3.00
2022-10-15T11:40:11.929Z,3.00
2022-10-15T11:41:15.787Z,2.50
2022-10-15T11:42:19.733Z,2.50
2022-10-15T11:43:23.957Z,2.75
2022-10-15T11:44:28.005Z,2.00
2022-10-15T11:45:31.960Z,2.00
2022-10-15T11:46:36.067Z,2.50
2022-10-15T11:47:40.088Z,2.50
2022-10-15T11:48:44.384Z,3.50
2022-10-15T11:49:48.719Z,4.25
2022-10-15T11:50:52.682Z,1.75
2022-10-15T11:51:56.695Z,1.75
2022-10-15T11:53:00.994Z,1.50
2022-10-15T11:54:04.891Z,2.00
2022-10-15T11:55:09.099Z,3.00
2022-10-15T11:56:13.171Z,2.50
2022-10-15T11:57:17.507Z,2.50
2022-10-15T11:58:21.513Z,2.00
2022-10-15T11:59:25.816Z,2.25
2022-10-15T12:00:29.926Z,2.00
2022-10-15T12:01:33.921Z,1.50
2022-10-15T12:02:38.441Z,2.25
2022-10-15T12:03:42.986Z,3.00
2022-10-15T12:04:47.257Z,2.50
2022-10-15T12:05:51.678Z,2.00
2022-10-15T12:06:55.877Z,3.00
2022-10-15T12:08:00.227Z,2.75
2022-10-15T12:09:04.628Z,2.00
2022-10-15T12:10:08.999Z,1.75
2022-10-15T12:11:13.251Z,2.00
2022-10-15T12:12:17.308Z,3.00
2022-10-15T12:13:21.311Z,3.50
2022-10-15T12:14:25.211Z,2.00
2022-10-15T12:15:29.108Z,2.00
2022-10-15T12:16:33.150Z,1.75
2022-10-15T12:17:37.342Z,2.00
2022-10-15T12:18:41.418Z,2.50
2022-10-15T12:19:45.832Z,3.00
2022-10-15T12:20:50.257Z,2.50
2022-10-15T12:21:54.756Z,2.00
2022-10-15T12:22:59.161Z,2.00
2022-10-15T12:24:03.579Z,2.50
2022-10-15T12:25:07.413Z,2.25
2022-10-15T12:26:11.608Z,1.00
2022-10-15T12:27:15.890Z,3.00
2022-10-15T12:28:19.937Z,2.50
2022-10-15T12:29:24.117Z,1.75
2022-10-15T12:30:28.427Z,3.00
2022-10-15T12:31:36.238Z,2.75
2022-10-15T12:32:37.734Z,2.00
2022-10-15T12:33:41.911Z,4.00
2022-10-15T12:34:46.141Z,3.75
2022-10-15T12:35:50.184Z,3.00
2022-10-15T12:36:54.253Z,2.25
2022-10-15T12:37:58.358Z,3.00
2022-10-15T12:39:07.884Z,3.00
2022-10-15T12:40:07.892Z,1.50
2022-10-15T12:41:12.232Z,2.00
2022-10-15T12:42:16.209Z,2.25
2022-10-15T12:43:20.307Z,1.50
2022-10-15T12:45:28.412Z,2.50
2022-10-15T12:46:32.751Z,3.50
2022-10-15T12:47:36.822Z,3.00
2022-10-15T12:48:41.133Z,2.00
2022-10-15T12:49:45.443Z,2.50
2022-10-15T12:50:49.541Z,2.00
2022-10-15T12:51:56.188Z,2.00
2022-10-15T12:52:59.385Z,2.00
2022-10-15T12:54:03.559Z,3.00
2022-10-15T12:55:07.700Z,2.25
2022-10-15T12:56:11.711Z,1.75
2022-10-15T12:57:16.112Z,2.25
2022-10-15T12:58:20.222Z,2.75
2022-10-15T12:59:24.232Z,3.25
2022-10-15T13:00:28.414Z,3.00
2022-10-15T13:01:32.595Z,3.25
2022-10-15T13:02:36.842Z,2.00
2022-10-15T13:03:40.766Z,1.50
2022-10-15T13:04:44.832Z,1.00
2022-10-15T13:05:51.565Z,1.50
2022-10-15T13:06:53.754Z,3.00
2022-10-15T13:07:58.195Z,3.00
2022-10-15T13:09:02.248Z,3.50
2022-10-15T13:10:06.162Z,3.00
2022-10-15T13:11:10.393Z,1.25
2022-10-15T13:12:14.252Z,2.00
2022-10-15T13:13:18.409Z,2.50
2022-10-15T13:14:22.246Z,2.25
2022-10-15T13:15:27.379Z,2.25
2022-10-15T13:16:31.344Z,2.50
2022-10-15T13:17:35.503Z,4.00
2022-10-15T13:18:39.914Z,4.25
2022-10-15T13:19:43.820Z,4.25
2022-10-15T13:20:48.181Z,3.50
2022-10-15T13:21:52.400Z,3.00
2022-10-15T13:23:01.932Z,5.00
2022-10-15T13:24:01.813Z,4.00
2022-10-15T13:25:05.760Z,1.50
2022-10-15T13:26:10.071Z,2.50
2022-10-15T13:27:14.098Z,3.25
2022-10-15T13:28:17.901Z,4.00
2022-10-15T13:29:22.182Z,3.00
2022-10-15T13:30:26.084Z,2.50
2022-10-15T13:31:30.726Z,4.00
2022-10-15T13:32:34.935Z,3.50
2022-10-15T13:33:38.799Z,2.00
2022-10-15T13:34:42.938Z,2.50
2022-10-15T13:35:46.852Z,3.00
2022-10-15T13:36:50.908Z,2.75
2022-10-15T13:37:54.806Z,3.50
2022-10-15T13:38:58.506Z,3.25
2022-10-15T13:40:04.970Z,4.00
2022-10-15T13:41:07.831Z,4.25
2022-10-15T13:42:11.853Z,4.25
2022-10-15T13:43:16.134Z,3.00
2022-10-15T13:44:20.225Z,2.50
2022-10-15T13:45:24.071Z,4.00
2022-10-15T13:46:28.078Z,4.00
2022-10-15T13:47:32.137Z,3.00
2022-10-15T13:48:36.310Z,3.25
2022-10-15T13:49:40.293Z,2.75
2022-10-15T13:50:44.148Z,3.00
2022-10-15T13:51:48.451Z,4.50
2022-10-15T13:52:52.560Z,4.00
2022-10-15T13:53:56.761Z,3.00
2022-10-15T13:55:01.074Z,2.50
2022-10-15T13:56:05.228Z,3.00
2022-10-15T13:57:09.070Z,4.50
2022-10-15T13:58:13.135Z,5.00
2022-10-15T13:59:17.104Z,5.00
2022-10-15T14:00:21.021Z,4.00
2022-10-15T14:01:24.889Z,3.50
2022-10-15T14:02:28.878Z,2.75
2022-10-15T14:03:32.877Z,4.00
2022-10-15T14:04:37.000Z,4.00
2022-10-15T14:05:41.618Z,3.67
2022-10-15T14:06:45.896Z,3.00
2022-10-15T14:07:49.901Z,3.00
2022-10-15T14:08:54.360Z,2.50
2022-10-15T14:09:58.438Z,3.00
2022-10-15T14:11:02.627Z,5.00
2022-10-15T14:12:06.930Z,4.00
2022-10-15T14:13:11.252Z,4.00
2022-10-15T14:14:15.239Z,3.25
2022-10-15T14:15:18.935Z,2.25
2022-10-15T14:16:22.933Z,5.00
2022-10-15T14:17:27.538Z,5.00
2022-10-15T14:18:31.961Z,3.50
2022-10-15T14:19:35.874Z,4.50
2022-10-15T14:20:39.757Z,3.00
2022-10-15T14:21:43.531Z,3.00
2022-10-15T14:22:47.862Z,4.00
2022-10-15T14:23:51.970Z,4.50
2022-10-15T14:24:56.360Z,4.00
2022-10-15T14:26:00.493Z,3.00
2022-10-15T14:27:04.691Z,3.25
2022-10-15T14:28:08.890Z,3.50
2022-10-15T14:29:13.097Z,4.25
2022-10-15T14:30:16.893Z,6.00
2022-10-15T14:31:21.100Z,4.75
2022-10-15T14:32:24.994Z,4.00
2022-10-15T14:33:29.120Z,4.50
2022-10-15T14:34:33.108Z,3.75
2022-10-15T14:35:36.970Z,4.50